Time;durP1;ratioP1;P1;durP2;ratioP2;P2;SDS_P1;SDS_P2;PMS_P1;PMS_P2;Temp;Humidity;BMP_temperature;BMP_pressure;BME280_temperature;BME280_humidity;BME280_pressure;Samples;Min_cycle;Max_cycle;Signal;HPM_P1;HPM_P2
2023/12/01 00:00:59;;;;;;;3.55;1.52;;;461.70;2227.20;;;;;;5069892;28;20033;-62
2023/12/01 00:03:25;;;;;;;3.00;1.75;;;461.70;2227.20;;;;;;5069613;28;20445;-61
2023/12/01 00:05:50;;;;;;;2.20;1.50;;;461.60;2252.80;;;;;;5066860;28;20104;-61
2023/12/01 00:08:16;;;;;;;4.25;2.50;;;486.40;2227.20;;;;;;5066492;28;20024;-65
2023/12/01 00:10:44;;;;;;;5.47;2.30;;;461.70;2227.20;;;;;;5069252;28;20518;-60
2023/12/01 00:13:09;;;;;;;2.72;1.63;;;461.70;2227.20;;;;;;5068737;28;20036;-61
2023/12/01 00:15:35;;;;;;;5.80;2.80;;;461.70;2227.20;;;;;;5069286;28;20363;-62
2023/12/01 00:18:01;;;;;;;5.53;2.70;;;461.70;2227.20;;;;;;5069241;28;20028;-62
2023/12/01 00:20:27;;;;;;;5.25;3.15;;;461.70;2252.80;;;;;;5069078;28;20091;-61
2023/12/01 00:22:52;;;;;;;3.05;1.90;;;461.60;2252.80;;;;;;5069083;28;20124;-62
2023/12/01 00:25:19;;;;;;;5.25;2.40;;;461.50;2252.80;;;;;;5068780;28;20039;-62
2023/12/01 00:27:45;;;;;;;2.95;2.00;;;461.50;2252.80;;;;;;5069018;28;20472;-64
2023/12/01 00:30:11;;;;;;;4.20;1.52;;;461.40;2278.40;;;;;;5068552;28;20225;-64
2023/12/01 00:32:37;;;;;;;4.38;2.05;;;461.70;2252.80;;;;;;5069371;28;20025;-61
2023/12/01 00:35:03;;;;;;;5.88;2.50;;;461.70;2252.80;;;;;;5068822;28;20024;-63
2023/12/01 00:37:31;;;;;;;5.75;2.60;;;461.70;2252.80;;;;;;5068976;28;20588;-62
2023/12/01 00:39:56;;;;;;;38.00;18.27;;;461.60;2278.40;;;;;;5068754;28;20044;-62
2023/12/01 00:42:22;;;;;;;23.27;13.07;;;461.50;2252.80;;;;;;5067033;28;20489;-61
2023/12/01 00:44:48;;;;;;;14.57;6.55;;;461.70;2252.80;;;;;;5056660;28;20278;-61
2023/12/01 00:47:14;;;;;;;9.60;4.10;;;461.70;2227.20;;;;;;5068984;28;20027;-61
2023/12/01 00:49:39;;;;;;;6.95;3.55;;;461.70;2252.80;;;;;;5068509;28;20099;-62
2023/12/01 00:52:05;;;;;;;9.00;3.75;;;461.70;2278.40;;;;;;5068868;28;20024;-62
2023/12/01 00:54:31;;;;;;;2.40;1.70;;;461.70;2252.80;;;;;;5068236;28;20074;-63
2023/12/01 00:56:57;;;;;;;24.25;15.98;;;461.70;2252.80;;;;;;5069062;28;20024;-61
2023/12/01 00:59:24;;;;;;;5.82;2.88;;;461.70;2252.80;;;;;;5067613;28;20036;-61
2023/12/01 01:01:50;;;;;;;6.82;3.70;;;486.40;2227.20;;;;;;5068609;28;20082;-61
2023/12/01 01:04:15;;;;;;;8.23;4.85;;;486.40;2252.80;;;;;;5068683;28;20029;-60
2023/12/01 01:06:41;;;;;;;5.30;2.85;;;486.40;2252.80;;;;;;5068620;28;20021;-61
2023/12/01 01:09:08;;;;;;;4.35;2.13;;;486.40;2227.20;;;;;;5068112;28;20035;-61
2023/12/01 01:11:35;;;;;;;10.27;6.38;;;486.40;2227.20;;;;;;5068494;28;20067;-63
2023/12/01 01:14:00;;;;;;;3.72;2.08;;;461.70;2252.80;;;;;;5068107;28;20052;-63
2023/12/01 01:16:26;;;;;;;5.53;2.70;;;486.50;2227.20;;;;;;5068688;28;20052;-64
2023/12/01 01:18:52;;;;;;;5.57;2.08;;;486.40;2252.80;;;;;;5064172;28;20127;-64
2023/12/01 01:21:18;;;;;;;3.10;2.10;;;486.40;2252.80;;;;;;5065988;28;20052;-66
2023/12/01 01:23:43;;;;;;;3.67;1.88;;;486.40;2252.80;;;;;;5068335;28;20468;-61
2023/12/01 01:26:09;;;;;;;6.38;2.05;;;486.40;2252.80;;;;;;5068263;28;20479;-62
2023/12/01 01:28:35;;;;;;;6.50;3.03;;;486.40;2252.80;;;;;;5068651;28;20032;-61
2023/12/01 01:31:01;;;;;;;4.07;2.42;;;486.40;2252.80;;;;;;5068220;28;20352;-62
2023/12/01 01:33:27;;;;;;;3.30;2.10;;;486.50;2227.20;;;;;;5072891;28;20033;-63
2023/12/01 01:35:53;;;;;;;4.82;3.72;;;486.50;2227.20;;;;;;5072417;28;20020;-62
2023/12/01 01:38:19;;;;;;;6.38;3.85;;;486.50;2227.20;;;;;;5072104;28;20410;-61
2023/12/01 01:40:45;;;;;;;4.75;2.40;;;486.40;2252.80;;;;;;5072572;28;20491;-61
2023/12/01 01:43:27;;;;;;;3.78;2.20;;;486.40;2278.40;;;;;;5071939;28;20029;-61
2023/12/01 01:46:11;;;;;;;6.72;4.43;;;486.40;2278.40;;;;;;5072168;28;20493;-63
2023/12/01 01:48:38;;;;;;;6.10;4.43;;;461.70;2278.40;;;;;;5072595;28;20477;-61
2023/12/01 01:51:09;;;;;;;8.65;3.45;;;461.70;2278.40;;;;;;5066172;28;20029;-62
2023/12/01 01:53:37;;;;;;;7.05;3.65;;;461.70;2278.40;;;;;;5072153;28;20028;-61
2023/12/01 01:56:04;;;;;;;7.60;5.40;;;461.70;2252.80;;;;;;5071717;28;20382;-65
2023/12/01 01:58:30;;;;;;;3.65;2.40;;;461.70;2278.40;;;;;;5071765;28;20107;-64
2023/12/01 02:00:55;;;;;;;4.43;2.10;;;486.40;2278.40;;;;;;5071948;28;20183;-61
2023/12/01 02:03:23;;;;;;;3.10;2.20;;;486.40;2278.40;;;;;;5072061;28;20032;-62
2023/12/01 02:05:49;;;;;;;2.95;2.00;;;461.70;2278.40;;;;;;5071637;28;20024;-62
2023/12/01 02:08:28;;;;;;;3.83;2.00;;;486.50;2252.80;;;;;;5072032;28;20031;-62
2023/12/01 02:10:56;;;;;;;4.32;2.00;;;486.50;2252.80;;;;;;5071387;28;20036;-66
2023/12/01 02:13:23;;;;;;;3.33;1.85;;;486.50;2252.80;;;;;;5071630;28;20417;-62
2023/12/01 02:15:49;;;;;;;4.32;2.10;;;486.50;2252.80;;;;;;5071720;28;20067;-63
2023/12/01 02:18:34;;;;;;;4.40;2.13;;;486.50;2278.40;;;;;;5071642;28;20415;-64
2023/12/01 02:21:00;;;;;;;4.20;2.10;;;486.60;2252.80;;;;;;5067995;28;20037;-65
2023/12/01 02:23:26;;;;;;;3.33;2.17;;;486.60;2252.80;;;;;;5060806;28;20040;-65
2023/12/01 02:25:52;;;;;;;4.15;2.05;;;486.60;2252.80;;;;;;5071639;28;20024;-62
2023/12/01 02:28:19;;;;;;;4.07;1.60;;;486.50;2278.40;;;;;;5071457;28;20024;-66
2023/12/01 02:30:52;;;;;;;4.20;2.17;;;486.60;2252.80;;;;;;5071488;28;20078;-62
2023/12/01 02:33:19;;;;;;;;;;;486.50;2252.80;;;;;;5072341;28;20025;-63
2023/12/01 02:35:49;;;;;;;3.22;2.10;;;486.60;2252.80;;;;;;5071587;28;19910;-66
2023/12/01 02:38:16;;;;;;;4.32;2.13;;;486.50;2252.80;;;;;;5071073;28;20382;-66
2023/12/01 02:40:49;;;;;;;8.35;5.70;;;486.50;2278.40;;;;;;5071076;28;20048;-64
2023/12/01 02:43:15;;;;;;;4.55;2.55;;;486.40;2278.40;;;;;;5067936;28;20107;-63
2023/12/01 02:45:41;;;;;;;5.10;2.40;;;486.50;2252.80;;;;;;5071371;28;20060;-65
2023/12/01 02:48:07;;;;;;;2.28;1.50;;;486.50;2252.80;;;;;;5071129;28;21880;-64
2023/12/01 02:50:34;;;;;;;3.83;1.90;;;486.50;2278.40;;;;;;5071000;28;20020;-67
2023/12/01 02:53:01;;;;;;;4.30;2.38;;;486.50;2252.80;;;;;;5064614;28;20025;-66
2023/12/01 02:55:27;;;;;;;3.50;2.35;;;486.50;2278.40;;;;;;5071272;28;20032;-66
2023/12/01 02:57:53;;;;;;;4.97;2.38;;;486.60;2252.80;;;;;;5070390;28;20059;-66
2023/12/01 03:00:20;;;;;;;4.82;2.47;;;486.50;2252.80;;;;;;5070889;28;20398;-63
2023/12/01 03:02:46;;;;;;;4.85;2.00;;;486.50;2252.80;;;;;;5071011;28;20027;-63
2023/12/01 03:05:12;;;;;;;5.25;3.03;;;486.60;2252.80;;;;;;5070843;28;20149;-63
2023/12/01 03:07:39;;;;;;;5.00;2.10;;;486.60;2252.80;;;;;;5070873;28;20035;-62
2023/12/01 03:10:09;;;;;;;3.28;1.90;;;486.50;2252.80;;;;;;5070849;28;20051;-62
2023/12/01 03:12:35;;;;;;;34.08;26.92;;;486.50;2278.40;;;;;;5070523;28;20044;-65
2023/12/01 03:15:01;;;;;;;7.78;4.05;;;486.60;2227.20;;;;;;5070759;28;20036;-62
2023/12/01 03:17:27;;;;;;;3.42;2.13;;;486.60;2252.80;;;;;;5070704;28;20052;-62
2023/12/01 03:19:53;;;;;;;5.95;2.40;;;486.60;2252.80;;;;;;5067644;28;20391;-64
2023/12/01 03:22:19;;;;;;;4.38;2.00;;;486.70;2252.80;;;;;;5070383;28;20036;-63
2023/12/01 03:24:47;;;;;;;5.45;2.28;;;486.60;2278.40;;;;;;5070411;28;20186;-63
2023/12/01 03:27:19;;;;;;;7.03;2.95;;;486.70;2227.20;;;;;;5070395;28;20025;-63
2023/12/01 03:29:46;;;;;;;2.78;1.60;;;486.70;2252.80;;;;;;5068231;28;20035;-62
2023/12/01 03:32:11;;;;;;;4.63;2.15;;;486.60;2252.80;;;;;;5070126;28;20051;-62
2023/12/01 03:34:37;;;;;;;9.88;6.28;;;486.70;2227.20;;;;;;5070460;28;20467;-63
2023/12/01 03:37:03;;;;;;;4.80;2.47;;;486.70;2227.20;;;;;;5069859;28;20463;-61
2023/12/01 03:39:30;;;;;;;4.72;2.17;;;486.80;2227.20;;;;;;5069909;28;20037;-62
2023/12/01 03:41:56;;;;;;;3.22;2.25;;;486.80;2227.20;;;;;;5070108;28;20029;-62
2023/12/01 03:44:22;;;;;;;8.25;3.88;;;486.70;2227.20;;;;;;5069999;28;20459;-61
2023/12/01 03:46:48;;;;;;;12.02;5.80;;;486.70;2227.20;;;;;;5069697;28;20032;-62
2023/12/01 03:49:14;;;;;;;6.97;2.53;;;486.80;2227.20;;;;;;5070071;28;20035;-61
2023/12/01 03:51:39;;;;;;;4.68;2.60;;;486.90;2201.60;;;;;;5069494;28;20103;-63
2023/12/01 03:54:05;;;;;;;6.28;3.17;;;486.80;2252.80;;;;;;5069633;28;20119;-61
2023/12/01 03:56:31;;;;;;;3.25;2.03;;;486.80;2227.20;;;;;;5069668;28;20076;-65
2023/12/01 03:58:57;;;;;;;7.90;5.53;;;486.80;2227.20;;;;;;5069726;28;20052;-62
2023/12/01 04:01:23;;;;;;;8.43;6.97;;;486.70;2227.20;;;;;;5069401;28;20032;-60
2023/12/01 04:03:49;;;;;;;3.65;2.35;;;486.80;2227.20;;;;;;5065360;28;20355;-63
2023/12/01 04:06:15;;;;;;;6.57;1.95;;;486.80;2252.80;;;;;;5069616;28;20392;-63
2023/12/01 04:08:41;;;;;;;4.10;2.33;;;486.80;2252.80;;;;;;5069041;28;20051;-63
2023/12/01 04:11:06;;;;;;;4.63;2.53;;;486.80;2252.80;;;;;;5069338;28;20041;-65
2023/12/01 04:13:33;;;;;;;3.75;1.77;;;486.80;2252.80;;;;;;5069213;28;20032;-62
2023/12/01 04:15:59;;;;;;;4.20;1.83;;;486.80;2252.80;;;;;;5069686;28;20024;-62
2023/12/01 04:18:27;;;;;;;3.05;1.90;;;486.80;2227.20;;;;;;5069153;28;20375;-62
2023/12/01 04:20:53;;;;;;;7.43;2.08;;;486.70;2227.20;;;;;;5069296;28;20036;-61
2023/12/01 04:23:19;;;;;;;5.57;2.40;;;486.90;2252.80;;;;;;5068630;28;20093;-62
2023/12/01 04:25:47;;;;;;;4.97;2.25;;;486.90;2252.80;;;;;;5069505;28;20044;-61
2023/12/01 04:28:14;;;;;;;4.13;2.35;;;486.80;2252.80;;;;;;5068741;28;20055;-65
2023/12/01 04:30:40;;;;;;;4.32;1.70;;;486.80;2252.80;;;;;;5069088;28;20442;-62
2023/12/01 04:33:06;;;;;;;6.43;1.80;;;486.90;2252.80;;;;;;5069139;28;20024;-61
2023/12/01 04:35:34;;;;;;;6.05;2.50;;;486.90;2227.20;;;;;;5057687;28;20029;-60
2023/12/01 04:38:03;;;;;;;4.68;1.98;;;487.00;2227.20;;;;;;5060714;28;20028;-64
2023/12/01 04:40:30;;;;;;;5.43;1.67;;;487.10;2227.20;;;;;;5068740;28;20040;-65
2023/12/01 04:42:57;;;;;;;5.20;2.20;;;487.10;2227.20;;;;;;5069053;28;20025;-62
2023/12/01 04:45:27;;;;;;;4.90;2.10;;;487.10;2201.60;;;;;;5068557;28;20024;-66
2023/12/01 04:47:54;;;;;;;3.47;2.28;;;487.10;2227.20;;;;;;5068030;28;20490;-63
2023/12/01 04:50:28;;;;;;;4.93;2.22;;;487.10;2227.20;;;;;;5068874;28;20040;-62
2023/12/01 04:52:57;;;;;;;5.35;2.67;;;487.10;2227.20;;;;;;5068693;28;20039;-62
2023/12/01 04:55:26;;;;;;;4.15;2.20;;;487.20;2227.20;;;;;;5068225;28;20070;-65
2023/12/01 04:57:52;;;;;;;3.90;1.90;;;487.30;2227.20;;;;;;5068530;28;20039;-62
2023/12/01 05:00:20;;;;;;;4.72;2.05;;;487.30;2227.20;;;;;;5068408;28;20029;-60
2023/12/01 05:02:49;;;;;;;5.22;1.88;;;487.30;2227.20;;;;;;5068715;28;20024;-61
2023/12/01 05:05:16;;;;;;;6.30;2.13;;;487.30;2227.20;;;;;;5061711;28;20034;-64
2023/12/01 05:07:43;;;;;;;5.03;1.88;;;487.20;2227.20;;;;;;5061185;28;20046;-62
2023/12/01 05:10:14;;;;;;;4.05;1.90;;;487.10;2227.20;;;;;;5065160;28;20035;-62
2023/12/01 05:13:04;;;;;;;4.82;2.03;;;487.10;2227.20;;;;;;5067877;28;20055;-61
2023/12/01 05:15:32;;;;;;;3.00;1.65;;;487.20;2227.20;;;;;;5068197;28;20024;-61
2023/12/01 05:18:00;;;;;;;7.45;1.95;;;487.10;2227.20;;;;;;5068309;28;20540;-66
2023/12/01 05:20:29;;;;;;;3.50;1.88;;;487.20;2227.20;;;;;;5068548;28;20039;-64
2023/12/01 05:22:58;;;;;;;3.15;1.85;;;487.20;2227.20;;;;;;5068387;28;20031;-63
2023/12/01 05:25:27;;;;;;;4.05;1.90;;;487.20;2227.20;;;;;;5068037;28;20021;-66
2023/12/01 05:27:55;;;;;;;5.55;2.17;;;487.30;2227.20;;;;;;5056690;28;20037;-62
2023/12/01 05:30:26;;;;;;;4.05;1.95;;;487.30;2227.20;;;;;;5067848;28;20039;-63
2023/12/01 05:32:53;;;;;;;4.50;2.15;;;487.20;2227.20;;;;;;5057360;28;20025;-63
2023/12/01 05:35:19;;;;;;;3.53;2.10;;;487.30;2227.20;;;;;;5068623;28;20495;-62
2023/12/01 05:37:50;;;;;;;3.47;2.25;;;487.20;2227.20;;;;;;5067671;28;20040;-65
2023/12/01 05:40:29;;;;;;;3.17;1.67;;;487.20;2227.20;;;;;;5066025;28;20040;-63
2023/12/01 05:42:56;;;;;;;4.65;1.92;;;487.10;2252.80;;;;;;5067636;28;20100;-59
2023/12/01 05:45:24;;;;;;;4.55;1.90;;;487.10;2252.80;;;;;;5067882;28;20040;-63
2023/12/01 05:47:54;;;;;;;2.63;1.52;;;487.10;2227.20;;;;;;5067809;28;20043;-65
2023/12/01 05:50:22;;;;;;;6.22;3.05;;;487.20;2227.20;;;;;;5068339;28;20108;-62
2023/12/01 05:52:50;;;;;;;5.95;2.20;;;487.20;2227.20;;;;;;5067986;28;20387;-64
2023/12/01 05:55:21;;;;;;;4.07;2.20;;;487.20;2252.80;;;;;;5068227;28;20024;-63
2023/12/01 05:57:51;;;;;;;4.97;2.10;;;487.10;2252.80;;;;;;5061252;28;20103;-63
2023/12/01 06:00:18;;;;;;;4.50;1.70;;;487.10;2252.80;;;;;;5067495;28;20487;-63
2023/12/01 06:02:45;;;;;;;3.38;2.22;;;487.10;2252.80;;;;;;5068179;28;20028;-61
2023/12/01 06:05:11;;;;;;;4.22;2.28;;;487.20;2252.80;;;;;;5067867;28;20009;-64
2023/12/01 06:07:41;;;;;;;4.60;2.13;;;487.10;2252.80;;;;;;5068093;28;20025;-63
2023/12/01 06:10:08;;;;;;;2.83;1.98;;;487.10;2252.80;;;;;;5068033;28;20537;-63
2023/12/01 06:12:34;;;;;;;4.97;1.90;;;487.10;2252.80;;;;;;5067574;28;20454;-65
2023/12/01 06:15:00;;;;;;;11.43;5.90;;;487.10;2252.80;;;;;;5063112;28;20021;-65
2023/12/01 06:17:25;;;;;;;6.53;3.85;;;487.10;2252.80;;;;;;5065551;28;20475;-61
2023/12/01 06:19:51;;;;;;;4.03;2.05;;;487.10;2252.80;;;;;;5071588;28;20079;-62
2023/12/01 06:22:17;;;;;;;5.88;2.47;;;487.10;2252.80;;;;;;5071196;28;20655;-61
2023/12/01 06:24:43;;;;;;;4.05;1.90;;;487.10;2252.80;;;;;;5071644;28;20063;-63
2023/12/01 06:27:11;;;;;;;3.97;2.50;;;487.10;2252.80;;;;;;5071239;28;20044;-62
2023/12/01 06:29:37;;;;;;;4.85;2.28;;;487.10;2252.80;;;;;;5071541;28;20036;-62
2023/12/01 06:32:03;;;;;;;9.93;2.80;;;487.10;2252.80;;;;;;5071098;28;20024;-65
2023/12/01 06:34:29;;;;;;;4.45;2.50;;;487.10;2252.80;;;;;;5071647;28;20041;-64
2023/12/01 06:36:58;;;;;;;8.70;7.13;;;487.20;2252.80;;;;;;5071555;28;20417;-64
2023/12/01 06:39:25;;;;;;;5.78;2.70;;;487.20;2252.80;;;;;;5071391;28;20119;-62
2023/12/01 06:41:53;;;;;;;4.43;4.03;;;487.30;2227.20;;;;;;5070663;28;20036;-61
2023/12/01 06:44:19;;;;;;;6.03;3.30;;;487.30;2227.20;;;;;;5071261;28;20060;-63
2023/12/01 06:46:45;;;;;;;7.30;4.43;;;487.30;2227.20;;;;;;5070203;28;20104;-64
2023/12/01 06:49:10;;;;;;;6.97;4.00;;;487.10;2227.20;;;;;;5071097;28;20032;-62
2023/12/01 06:51:36;;;;;;;11.88;9.70;;;512.00;2227.20;;;;;;5064434;28;20021;-67
2023/12/01 06:54:02;;;;;;;12.80;7.60;;;512.00;2201.60;;;;;;5070361;28;20043;-62
2023/12/01 06:56:28;;;;;;;4.70;2.78;;;512.10;2201.60;;;;;;5071162;28;20111;-62
2023/12/01 06:58:53;;;;;;;9.68;8.73;;;512.20;2201.60;;;;;;5070555;28;20020;-61
2023/12/01 07:01:20;;;;;;;19.92;18.33;;;512.20;2201.60;;;;;;5070919;28;20051;-62
2023/12/01 07:03:46;;;;;;;133.90;99.97;;;512.30;2201.60;;;;;;5070664;28;20105;-63
2023/12/01 07:06:12;;;;;;;12.43;8.18;;;512.30;2176.00;;;;;;5070717;28;20116;-62
2023/12/01 07:08:38;;;;;;;375.95;243.15;;;512.40;2176.00;;;;;;5070609;28;20071;-61
2023/12/01 07:11:05;;;;;;;31.23;24.35;;;512.40;2176.00;;;;;;5070616;28;20072;-66
2023/12/01 07:13:30;;;;;;;10.65;9.52;;;512.50;2150.40;;;;;;5070729;28;20099;-65
2023/12/01 07:15:57;;;;;;;8.82;7.45;;;512.50;2176.00;;;;;;5070979;28;20167;-61
2023/12/01 07:18:23;;;;;;;13.23;7.68;;;512.60;2150.40;;;;;;5070407;28;20072;-63
2023/12/01 07:20:49;;;;;;;16.58;14.80;;;512.60;2150.40;;;;;;5070556;28;20040;-61
2023/12/01 07:23:17;;;;;;;37.47;29.38;;;512.60;2176.00;;;;;;5069990;28;20505;-64
2023/12/01 07:25:47;;;;;;;54.00;39.97;;;512.50;2176.00;;;;;;5068373;28;20038;-62
2023/12/01 07:28:14;;;;;;;129.45;90.22;;;512.60;2176.00;;;;;;5068619;28;20078;-63
2023/12/01 07:30:41;;;;;;;95.93;85.78;;;512.60;2176.00;;;;;;5069387;28;20029;-64
2023/12/01 07:33:08;;;;;;;13.80;11.35;;;512.60;2176.00;;;;;;5070505;28;20039;-63
2023/12/01 07:35:34;;;;;;;16.98;15.27;;;512.70;2150.40;;;;;;5070051;28;20513;-64
2023/12/01 07:38:00;;;;;;;10.95;9.85;;;512.80;2150.40;;;;;;5069654;28;20459;-61
2023/12/01 07:40:27;;;;;;;23.92;17.98;;;512.90;2150.40;;;;;;5069799;28;20044;-64
2023/12/01 07:42:57;;;;;;;5.97;2.70;;;512.90;2150.40;;;;;;5069594;28;21312;-64
2023/12/01 07:45:23;;;;;;;22.98;19.10;;;537.60;2150.40;;;;;;5069739;28;20115;-60
2023/12/01 07:47:54;;;;;;;6.75;3.22;;;537.70;2124.80;;;;;;5069497;28;20012;-62
2023/12/01 07:50:21;;;;;;;36.08;23.73;;;537.80;2099.20;;;;;;5069517;28;20028;-60
2023/12/01 07:52:49;;;;;;;27.75;24.88;;;537.90;2099.20;;;;;;5070350;28;20028;-66
2023/12/01 07:55:16;;;;;;;22.85;13.52;;;538.00;2099.20;;;;;;5052036;28;20012;-62
2023/12/01 07:57:42;;;;;;;17.52;12.93;;;538.10;2099.20;;;;;;5063928;28;20107;-66
2023/12/01 08:00:18;;;;;;;8.43;6.18;;;538.10;2073.60;;;;;;5069427;28;20471;-63
2023/12/01 08:02:45;;;;;;;6.50;3.28;;;538.10;2124.80;;;;;;5061011;28;20036;-58
2023/12/01 08:05:13;;;;;;;8.07;3.72;;;538.10;2099.20;;;;;;5066076;28;20515;-62
2023/12/01 08:07:43;;;;;;;32.92;22.70;;;538.20;2073.60;;;;;;5061202;28;20040;-62
2023/12/01 08:10:09;;;;;;;61.75;46.03;;;538.30;2048.00;;;;;;5065518;28;20025;-62
2023/12/01 08:12:35;;;;;;;6.80;4.07;;;538.50;2022.40;;;;;;5064132;28;20052;-60
2023/12/01 08:15:01;;;;;;;17.42;12.18;;;538.50;1996.80;;;;;;5058751;28;20016;-63
2023/12/01 08:17:27;;;;;;;38.67;25.30;;;563.20;2048.00;;;;;;5062544;28;20390;-65
2023/12/01 08:19:52;;;;;;;53.13;35.60;;;563.40;2022.40;;;;;;5060803;28;20040;-61
2023/12/01 08:22:18;;;;;;;63.28;33.90;;;563.30;2022.40;;;;;;5066151;28;20656;-61
2023/12/01 08:24:46;;;;;;;9.38;6.82;;;538.50;1996.80;;;;;;5062611;28;20115;-64
2023/12/01 08:27:12;;;;;;;12.38;7.18;;;538.50;2022.40;;;;;;5062844;28;20501;-61
2023/12/01 08:29:38;;;;;;;12.73;9.55;;;538.50;2022.40;;;;;;5062269;28;20052;-63
2023/12/01 08:32:05;;;;;;;10.02;7.28;;;538.50;1971.20;;;;;;5060185;28;20419;-66
2023/12/01 08:34:31;;;;;;;8.68;5.88;;;538.50;1971.20;;;;;;5063638;28;20021;-61
2023/12/01 08:36:56;;;;;;;5.95;2.92;;;563.20;1996.80;;;;;;5061444;28;20082;-64
2023/12/01 08:39:23;;;;;;;153.50;100.78;;;563.20;1996.80;;;;;;5065616;28;20032;-58
2023/12/01 08:41:53;;;;;;;34.25;23.40;;;563.30;1996.80;;;;;;5066659;28;20040;-61
2023/12/01 08:44:19;;;;;;;11.15;3.83;;;563.40;1996.80;;;;;;5059774;28;20036;-60
2023/12/01 08:46:45;;;;;;;8.15;5.22;;;563.60;1945.60;;;;;;5056656;28;20391;-58
2023/12/01 08:49:10;;;;;;;40.97;24.63;;;563.40;1996.80;;;;;;5061701;28;20020;-59
2023/12/01 08:51:36;;;;;;;34.60;22.88;;;563.50;1920.00;;;;;;5061626;28;20398;-58
2023/12/01 08:54:02;;;;;;;5.80;3.42;;;563.50;1945.60;;;;;;5060421;28;20021;-59
2023/12/01 08:56:34;;;;;;;14.02;9.35;;;563.60;1971.20;;;;;;5059158;28;20104;-57
2023/12/01 08:59:00;;;;;;;35.33;31.52;;;563.60;1971.20;;;;;;5059266;28;20016;-59
2023/12/01 09:01:26;;;;;;;41.10;35.58;;;563.80;1920.00;;;;;;5059748;28;20020;-58
2023/12/01 09:03:52;;;;;;;25.33;17.63;;;563.80;1920.00;;;;;;5057082;28;20488;-58
2023/12/01 09:06:18;;;;;;;24.70;16.83;;;563.80;1920.00;;;;;;5058631;28;20043;-58
2023/12/01 09:08:44;;;;;;;61.65;41.47;;;563.90;1894.40;;;;;;5060669;28;20475;-60
2023/12/01 09:11:10;;;;;;;32.45;23.85;;;564.10;1894.40;;;;;;5059124;28;20132;-60
2023/12/01 09:13:36;;;;;;;12.82;3.72;;;588.90;1868.80;;;;;;5058990;28;20056;-60
2023/12/01 09:16:02;;;;;;;29.42;18.30;;;588.80;1868.80;;;;;;5066134;28;20068;-63
2023/12/01 09:18:32;;;;;;;194.20;106.43;;;589.10;1843.20;;;;;;5069416;28;20103;-59
2023/12/01 09:20:58;;;;;;;38.60;23.67;;;589.00;1843.20;;;;;;5068818;28;20447;-59
2023/12/01 09:23:24;;;;;;;48.33;29.23;;;588.90;1868.80;;;;;;5068481;28;20109;-61
2023/12/01 09:25:51;;;;;;;7.70;4.43;;;588.80;1817.60;;;;;;5068501;28;20055;-59
2023/12/01 09:28:16;;;;;;;98.57;72.28;;;564.10;1843.20;;;;;;5069030;28;20481;-59
2023/12/01 09:30:42;;;;;;;47.25;30.45;;;588.80;1843.20;;;;;;5068987;28;20020;-61
2023/12/01 09:33:08;;;;;;;58.53;39.63;;;564.10;1817.60;;;;;;5068864;28;20016;-60
2023/12/01 09:35:34;;;;;;;117.47;81.03;;;564.10;1817.60;;;;;;5069036;28;20028;-59
2023/12/01 09:38:00;;;;;;;42.33;28.25;;;564.10;1817.60;;;;;;5068605;28;20433;-60
2023/12/01 09:40:25;;;;;;;11.73;7.22;;;563.90;1817.60;;;;;;5068660;28;20052;-61
2023/12/01 09:42:53;;;;;;;28.55;18.45;;;563.90;1817.60;;;;;;5068827;28;20078;-59
2023/12/01 09:45:21;;;;;;;33.22;21.95;;;563.60;1792.00;;;;;;5068773;28;21047;-58
2023/12/01 09:48:08;;;;;;;19.40;11.80;;;563.70;1792.00;;;;;;5067610;28;20021;-59
2023/12/01 09:50:35;;;;;;;21.92;14.68;;;563.70;1792.00;;;;;;5057143;28;20032;-60
2023/12/01 09:53:01;;;;;;;15.60;13.48;;;563.60;1920.00;;;;;;5064862;28;20032;-60
2023/12/01 09:55:26;;;;;;;89.60;81.00;;;563.50;1843.20;;;;;;5072670;28;20100;-59
2023/12/01 09:57:53;;;;;;;18.35;11.52;;;563.60;1868.80;;;;;;5072353;28;20056;-59
2023/12/01 10:00:19;;;;;;;19.35;12.23;;;563.70;1792.00;;;;;;5072578;28;20028;-59
2023/12/01 10:02:45;;;;;;;48.28;39.30;;;563.80;1894.40;;;;;;5072270;28;20054;-59
2023/12/01 10:05:13;;;;;;;15.70;12.55;;;563.90;1792.00;;;;;;5072063;28;20024;-59
2023/12/01 10:07:40;;;;;;;6.57;4.68;;;564.00;1766.40;;;;;;5071843;28;20021;-60
2023/12/01 10:10:22;;;;;;;6.50;4.00;;;564.10;1766.40;;;;;;5072386;28;20029;-59
2023/12/01 10:12:58;;;;;;;18.67;16.50;;;563.80;1766.40;;;;;;5058665;28;20049;-60
2023/12/01 10:15:26;;;;;;;18.27;13.80;;;563.90;1740.80;;;;;;5072165;28;20107;-59
2023/12/01 10:17:52;;;;;;;25.30;22.60;;;563.90;1740.80;;;;;;5071840;28;20028;-58
2023/12/01 10:20:21;;;;;;;20.98;16.58;;;563.90;1740.80;;;;;;5072088;28;20028;-58
2023/12/01 10:22:49;;;;;;;8.80;3.80;;;563.80;1740.80;;;;;;5072257;28;20024;-59
2023/12/01 10:25:15;;;;;;;31.23;22.90;;;563.80;1740.80;;;;;;5071736;28;20114;-59
2023/12/01 10:27:41;;;;;;;16.92;12.30;;;563.70;1766.40;;;;;;5065676;28;20025;-59
2023/12/01 10:30:14;;;;;;;11.48;6.45;;;563.60;1766.40;;;;;;5072117;28;20298;-59
2023/12/01 10:32:42;;;;;;;;;;;563.60;1740.80;;;;;;5071845;28;20431;-59
2023/12/01 10:35:08;;;;;;;8.90;5.80;;;563.60;1715.20;;;;;;5071573;28;19948;-59
2023/12/01 10:37:37;;;;;;;16.05;11.52;;;563.60;1715.20;;;;;;5071697;28;20063;-59
2023/12/01 10:40:05;;;;;;;10.68;6.03;;;563.70;1715.20;;;;;;5071155;28;20482;-59
2023/12/01 10:42:36;;;;;;;5.53;4.15;;;563.70;1715.20;;;;;;5071767;28;20031;-60
2023/12/01 10:45:03;;;;;;;14.02;6.78;;;563.70;1715.20;;;;;;5071521;28;20025;-62
2023/12/01 10:47:30;;;;;;;9.35;4.80;;;563.70;1740.80;;;;;;5071622;28;20029;-60
2023/12/01 10:49:56;;;;;;;7.63;5.13;;;563.70;1715.20;;;;;;5071534;28;20031;-61
2023/12/01 10:52:27;;;;;;;19.90;8.18;;;563.60;1715.20;;;;;;5071674;28;20107;-60
2023/12/01 10:54:53;;;;;;;16.02;9.70;;;563.70;1664.00;;;;;;5071433;28;20479;-60
2023/12/01 10:57:27;;;;;;;13.15;9.18;;;563.60;1664.00;;;;;;5071342;28;20032;-60
2023/12/01 10:59:58;;;;;;;5.07;3.17;;;563.70;1664.00;;;;;;5069501;28;20123;-59
2023/12/01 11:02:25;;;;;;;7.95;5.10;;;563.80;1664.00;;;;;;5051988;28;20091;-60
2023/12/01 11:04:51;;;;;;;13.57;7.70;;;563.80;1664.00;;;;;;5068793;28;20028;-59
2023/12/01 11:07:33;;;;;;;10.52;4.30;;;563.80;1664.00;;;;;;5071110;28;20024;-59
2023/12/01 11:10:39;;;;;;;12.82;7.55;;;563.80;1664.00;;;;;;5070896;28;20053;-61
2023/12/01 11:13:31;;;;;;;4.72;2.65;;;563.90;1638.40;;;;;;5065120;28;20045;-58
2023/12/01 11:15:57;;;;;;;8.60;4.68;;;564.10;1638.40;;;;;;5052778;28;20037;-59
2023/12/01 11:18:23;;;;;;;16.02;10.77;;;564.00;1638.40;;;;;;5065563;28;20028;-59
2023/12/01 11:20:51;;;;;;;7.07;3.40;;;564.10;1612.80;;;;;;5062192;28;20040;-61
2023/12/01 11:23:20;;;;;;;12.77;5.82;;;564.10;1612.80;;;;;;5065354;28;20070;-62
2023/12/01 11:25:53;;;;;;;7.93;5.88;;;564.10;1638.40;;;;;;5061391;28;20047;-61
2023/12/01 11:28:27;;;;;;;7.75;4.22;;;588.80;1612.80;;;;;;5060138;28;20364;-60
2023/12/01 11:31:43;;;;;;;23.27;19.60;;;564.10;1638.40;;;;;;5061534;28;20115;-60
2023/12/01 11:33:51;;;;;;;10.38;6.30;;;564.10;1638.40;;;;;;5055131;28;20041;-60
2023/12/01 11:36:31;;;;;;;6.95;4.97;;;564.10;1638.40;;;;;;5053760;28;20024;-61
2023/12/01 11:39:20;;;;;;;21.25;15.70;;;563.90;1612.80;;;;;;5062790;28;20025;-57
2023/12/01 11:42:13;;;;;;;21.50;15.70;;;563.90;1638.40;;;;;;5059918;28;20085;-58
2023/12/01 11:44:40;;;;;;;14.02;8.77;;;564.00;1612.80;;;;;;5057276;28;20045;-58
2023/12/01 11:47:08;;;;;;;8.63;6.15;;;564.00;1612.80;;;;;;5064289;28;20044;-58
2023/12/01 11:49:38;;;;;;;11.85;7.63;;;564.00;1612.80;;;;;;5065389;28;20475;-60
2023/12/01 11:52:15;;;;;;;48.28;34.42;;;563.90;1612.80;;;;;;5061026;28;20017;-61
2023/12/01 11:54:41;;;;;;;50.78;34.22;;;563.90;1612.80;;;;;;5063554;28;20021;-61
2023/12/01 11:57:16;;;;;;;26.20;17.83;;;563.90;1612.80;;;;;;5067236;28;20399;-59
2023/12/01 11:59:41;;;;;;;17.80;12.93;;;563.90;1612.80;;;;;;5058503;28;20467;-59
2023/12/01 12:02:07;;;;;;;21.80;16.10;;;563.90;1612.80;;;;;;5062120;28;20009;-59
2023/12/01 12:04:35;;;;;;;14.55;11.98;;;563.80;1638.40;;;;;;5067104;28;20501;-62
2023/12/01 12:07:01;;;;;;;20.98;14.43;;;563.80;1638.40;;;;;;5069646;28;20036;-63
2023/12/01 12:09:31;;;;;;;25.85;23.15;;;563.70;1638.40;;;;;;5069621;28;20108;-59
2023/12/01 12:11:57;;;;;;;15.95;11.68;;;563.70;1638.40;;;;;;5069741;28;20049;-59
2023/12/01 12:14:28;;;;;;;9.90;7.15;;;563.70;1664.00;;;;;;5069736;28;20052;-63